This is the latest recevied weather packets stored in our database for station/object VA7NIC-10. If no packets are shown the sender has not sent any weather packets the latest 10 day(s).
| Time | Temp. | Humidity | Pressure | Rain* | Wind** | Luminosity | Snow |
|---|---|---|---|---|---|---|---|
| 1777826221 | 16.11° C | 64% | 1014.5 hPa | 0 mm | - | - | - |
| 1777825321 | 15° C | 68% | 1014.6 hPa | 0 mm | - | - | - |
| 1777824421 | 14.44° C | 73% | 1014.7 hPa | 0 mm | - | - | - |
| 1777823521 | 13.89° C | 75% | 1014.7 hPa | 0 mm | - | - | - |
| 1777822621 | 13.33° C | 77% | 1014.9 hPa | 0 mm | - | - | - |
| 1777821722 | 12.78° C | 80% | 1015 hPa | 0 mm | - | - | - |
| 1777820822 | 12.22° C | 82% | 1015 hPa | 0 mm | - | - | - |
| 1777819922 | 11.67° C | 83% | 1015 hPa | 0 mm | - | - | - |
| 1777819022 | 11.67° C | 83% | 1014.9 hPa | 0 mm | - | - | - |
| 1777818122 | 11.67° C | 82% | 1014.8 hPa | 0 mm | - | - | - |
| 1777817222 | 11.67° C | 81% | 1014.8 hPa | 0 mm | - | - | - |
| 1777816322 | 11.67° C | 81% | 1014.9 hPa | 0 mm | - | - | - |
| 1777815421 | 11.67° C | 80% | 1014.9 hPa | 0 mm | - | - | - |
| 1777814521 | 11.67° C | 79% | 1014.8 hPa | 0 mm | - | - | - |
| 1777813621 | 11.67° C | 78% | 1014.7 hPa | 0 mm | - | - | - |
| 1777812721 | 12.22° C | 78% | 1014.8 hPa | 0 mm | - | - | - |
| 1777811821 | 12.22° C | 78% | 1014.9 hPa | 0 mm | - | - | - |
| 1777810921 | 12.22° C | 77% | 1014.8 hPa | 0 mm | - | - | - |
| 1777810021 | 12.22° C | 76% | 1014.8 hPa | 0 mm | - | - | - |
| 1777809122 | 12.22° C | 76% | 1014.7 hPa | 0 mm | - | - | - |
| 1777808222 | 12.78° C | 75% | 1014.7 hPa | 0 mm | - | - | - |
| 1777807322 | 12.78° C | 74% | 1014.7 hPa | 0 mm | - | - | - |
| 1777806422 | 12.78° C | 73% | 1014.7 hPa | 0 mm | - | - | - |
| 1777805522 | 12.78° C | 73% | 1014.7 hPa | 0 mm | - | - | - |
| 1777804622 | 12.78° C | 71% | 1014.8 hPa | 0 mm | - | - | - |
* Rain latest hour (hover to see other rain measurements)
** Current wind speed in m/s (hover to see current wind gust speed)